KBAF/BAF METAR and TAF weather

Enter ICAO airport designator
Station Type Date Time Source
KBAF METAR 2021/03/08 11:53 UTC NOAA

KBAF 081153Z 00000KT 10SM CLR M09/M13 A3040 RMK AO2 SLP302 T10891133 11044 21094 51009 $


Station Type Date Time Source
KBAF Decoded METAR 2021/03/08 11:53 UTC NOAA

WESTFIELD BARNES MUNICIPAL, MA, United States (KBAF) 42-10N 072-43W 83M
Mar 08, 2021 - 06:53 AM EST / 2021.03.08 1153 UTC
Wind: Calm:0
Visibility: 10 mile(s):0
Sky conditions: clear
Temperature: 16.0 F (-8.9 C)
Dew Point: 8.1 F (-13.3 C)
Relative Humidity: 70%
Pressure (altimeter): 30.4 in. Hg (1029 hPa)
Pressure tendency: 0.03 inches (0.9 hPa) higher than three hours ago
ob: KBAF 081153Z 00000KT 10SM CLR M09/M13 A3040 RMK AO2 SLP302 T10891133 11044 21094 51009
cycle: 12

Station Type Date Time Source
KBAF TAF 2021/03/08 12:42 UTC NOAA

TAF KBAF 081139Z 0812/0912 36005KT P6SM SKC
FM082100 30007KT P6SM FEW200
FM090200 21004KT P6SM BKN060

Example: see airport list